Delhi, Canada
Current Conditions -  °F | °C
As of 1:34 AM on Friday 19 Dec 2014 (Local Time) from CYXU Reporting Station
Light Snow Light Snow  
Wind Chill: 14°   Ceiling: 1700
Heat Index: 25°   Visibility: 15mi
Dew Point: 21°   Wind: 12mph
Humidity: 86%   Direction: 340°NNW
Pressure: 30.12"   Gusts: 20mph
Location:  42.85°N, 80.49°W
Report Text: CYXU 190634Z 34010G17KT 15SM -SN SCT008 OVC017 M04/M06 A3012 RMK SF3SC5 SLP213
Loading
Personal Weather Stations






























Interactive Weather Map New forecast layout! Learn more

10-Day Weather Forecast

Advertisements
Track Severe Weather on mobile